SGEN/ENO METAR and TAF weather

Enter ICAO airport designator
Station Type Date Time Source
SGEN METAR 2022/12/05 15:00 UTC NOAA

SGEN 051500Z 11008KT 9999 FEW033 30/21 Q1010


Station Type Date Time Source
SGEN Decoded METAR 2022/12/05 15:00 UTC NOAA

Encarnacion, Paraguay (SGEN) 27-19S 055-50W 91M
Dec 05, 2022 - 10:00 AM EST / 2022.12.05 1500 UTC
Wind: from the ESE (110 degrees) at 9 MPH (8 KT):0
Visibility: greater than 7 mile(s):0
Sky conditions: mostly clear
Temperature: 86 F (30 C)
Dew Point: 69 F (21 C)
Relative Humidity: 58%
Pressure (altimeter): 29.83 in. Hg (1010 hPa)
ob: SGEN 051500Z 11008KT 9999 FEW033 30/21 Q1010
cycle: 15

Station Type Date Time Source
SGEN TAF 2022/12/05 12:00 UTC NOAA

TAF SGEN 051001Z 0512/0612 14003KT CAVOK TX34/0519Z TN22/0610Z
BECMG 0514/0517 VRB05KT 9999 SCT033 FEW040TCU PROB40 0518/0521 8000 TSSHRA BKN027 FEW040CB

Example: see airport list